Terminal Aerodrome Forecast
Issued by NWS Wilmington, OH

Current Version | Previous Version | Graphics & Text | Print | Product List | Glossary On
Versions: 1 2 3 4 5 6 7 8 9 10 11 12 13 14 15 16 17 18 19 20 21 22 23 24 25 26 27 28 29 30 31 32
000
FTUS41 KILN 170400 AAB
TAFCVG
TAF AMD
KCVG 170428Z 1704/1806 22004KT P6SM VCSH BKN025
      TEMPO 1704/1706 4SM -SHRA OVC015
     FM170700 24005KT 4SM BR BKN012
     FM171000 27003KT 2SM BR SCT008 BKN012
     FM171300 31006KT P6SM BKN025
     FM171500 35008KT P6SM SKC=

USA.gov is the U.S. government's official web portal to all federal, state and local government web resources and services.